sensor_id;sensor_type;location;lat;lon;timestamp;P1;durP1;ratioP1;P2;durP2;ratioP2
8714;SDS011;4394;51.208;8.904;2023-08-01T00:00:09;2.63;;;1.40;;
8714;SDS011;4394;51.208;8.904;2023-08-01T00:02:57;3.00;;;1.27;;
8714;SDS011;4394;51.208;8.904;2023-08-01T00:05:46;1.53;;;1.43;;
8714;SDS011;4394;51.208;8.904;2023-08-01T00:08:34;2.70;;;1.53;;
8714;SDS011;4394;51.208;8.904;2023-08-01T00:11:22;2.50;;;1.90;;
8714;SDS011;4394;51.208;8.904;2023-08-01T00:14:10;1.80;;;1.60;;
8714;SDS011;4394;51.208;8.904;2023-08-01T00:16:59;3.43;;;1.60;;
8714;SDS011;4394;51.208;8.904;2023-08-01T00:19:47;2.27;;;1.67;;
8714;SDS011;4394;51.208;8.904;2023-08-01T00:22:35;2.37;;;1.63;;
8714;SDS011;4394;51.208;8.904;2023-08-01T00:25:25;2.60;;;1.60;;
8714;SDS011;4394;51.208;8.904;2023-08-01T00:28:13;2.33;;;1.43;;
8714;SDS011;4394;51.208;8.904;2023-08-01T00:31:01;2.60;;;1.80;;
8714;SDS011;4394;51.208;8.904;2023-08-01T00:33:52;3.67;;;2.23;;
8714;SDS011;4394;51.208;8.904;2023-08-01T00:36:40;3.43;;;1.97;;
8714;SDS011;4394;51.208;8.904;2023-08-01T00:39:28;2.13;;;1.90;;
8714;SDS011;4394;51.208;8.904;2023-08-01T00:42:16;2.20;;;2.00;;
8714;SDS011;4394;51.208;8.904;2023-08-01T00:45:05;1.70;;;1.60;;
8714;SDS011;4394;51.208;8.904;2023-08-01T00:47:54;2.30;;;1.80;;
8714;SDS011;4394;51.208;8.904;2023-08-01T00:50:44;2.30;;;1.77;;
8714;SDS011;4394;51.208;8.904;2023-08-01T00:53:32;2.50;;;1.80;;
8714;SDS011;4394;51.208;8.904;2023-08-01T00:56:21;2.37;;;2.03;;
8714;SDS011;4394;51.208;8.904;2023-08-01T00:59:10;3.27;;;1.90;;
8714;SDS011;4394;51.208;8.904;2023-08-01T01:01:59;2.60;;;2.00;;
8714;SDS011;4394;51.208;8.904;2023-08-01T01:04:47;1.70;;;1.47;;
8714;SDS011;4394;51.208;8.904;2023-08-01T01:07:38;2.97;;;1.80;;
8714;SDS011;4394;51.208;8.904;2023-08-01T01:10:29;2.07;;;1.40;;
8714;SDS011;4394;51.208;8.904;2023-08-01T01:13:18;2.50;;;1.97;;
8714;SDS011;4394;51.208;8.904;2023-08-01T01:16:06;2.53;;;1.60;;
8714;SDS011;4394;51.208;8.904;2023-08-01T01:18:54;2.13;;;1.57;;
8714;SDS011;4394;51.208;8.904;2023-08-01T01:21:44;2.77;;;1.70;;
8714;SDS011;4394;51.208;8.904;2023-08-01T01:24:33;4.17;;;2.07;;
8714;SDS011;4394;51.208;8.904;2023-08-01T01:27:23;2.33;;;1.63;;
8714;SDS011;4394;51.208;8.904;2023-08-01T01:30:12;2.17;;;1.63;;
8714;SDS011;4394;51.208;8.904;2023-08-01T01:33:01;3.77;;;1.40;;
8714;SDS011;4394;51.208;8.904;2023-08-01T01:35:51;1.80;;;1.40;;
8714;SDS011;4394;51.208;8.904;2023-08-01T01:38:41;2.30;;;1.47;;
8714;SDS011;4394;51.208;8.904;2023-08-01T01:41:29;2.77;;;1.70;;
8714;SDS011;4394;51.208;8.904;2023-08-01T01:44:17;2.87;;;1.67;;
8714;SDS011;4394;51.208;8.904;2023-08-01T01:47:05;3.70;;;1.47;;
8714;SDS011;4394;51.208;8.904;2023-08-01T01:49:54;3.37;;;1.33;;
8714;SDS011;4394;51.208;8.904;2023-08-01T01:52:42;2.53;;;1.07;;
8714;SDS011;4394;51.208;8.904;2023-08-01T01:55:31;1.70;;;1.40;;
8714;SDS011;4394;51.208;8.904;2023-08-01T01:58:20;1.07;;;0.97;;
8714;SDS011;4394;51.208;8.904;2023-08-01T02:01:08;1.40;;;1.00;;
8714;SDS011;4394;51.208;8.904;2023-08-01T02:03:57;1.10;;;1.00;;
8714;SDS011;4394;51.208;8.904;2023-08-01T02:06:45;1.20;;;0.80;;
8714;SDS011;4394;51.208;8.904;2023-08-01T02:09:33;2.17;;;0.87;;
8714;SDS011;4394;51.208;8.904;2023-08-01T02:12:22;1.93;;;1.10;;
8714;SDS011;4394;51.208;8.904;2023-08-01T02:15:10;0.60;;;0.60;;
8714;SDS011;4394;51.208;8.904;2023-08-01T02:17:58;1.40;;;0.83;;
8714;SDS011;4394;51.208;8.904;2023-08-01T02:20:47;1.20;;;0.80;;
8714;SDS011;4394;51.208;8.904;2023-08-01T02:23:35;0.50;;;0.50;;
8714;SDS011;4394;51.208;8.904;2023-08-01T02:26:24;1.00;;;0.80;;
8714;SDS011;4394;51.208;8.904;2023-08-01T02:29:13;1.63;;;0.90;;
8714;SDS011;4394;51.208;8.904;2023-08-01T02:32:01;0.80;;;0.57;;
8714;SDS011;4394;51.208;8.904;2023-08-01T02:34:49;2.07;;;0.43;;
8714;SDS011;4394;51.208;8.904;2023-08-01T02:37:37;1.20;;;0.70;;
8714;SDS011;4394;51.208;8.904;2023-08-01T02:40:25;1.10;;;0.80;;
8714;SDS011;4394;51.208;8.904;2023-08-01T02:43:14;0.77;;;0.40;;
8714;SDS011;4394;51.208;8.904;2023-08-01T02:46:03;0.53;;;0.47;;
8714;SDS011;4394;51.208;8.904;2023-08-01T02:48:52;0.50;;;0.50;;
8714;SDS011;4394;51.208;8.904;2023-08-01T02:51:40;0.80;;;0.40;;
8714;SDS011;4394;51.208;8.904;2023-08-01T02:54:28;1.77;;;0.40;;
8714;SDS011;4394;51.208;8.904;2023-08-01T02:57:16;0.20;;;0.20;;
8714;SDS011;4394;51.208;8.904;2023-08-01T03:00:04;1.33;;;0.33;;
8714;SDS011;4394;51.208;8.904;2023-08-01T03:02:59;0.90;;;0.10;;
8714;SDS011;4394;51.208;8.904;2023-08-01T03:05:47;0.60;;;0.20;;
8714;SDS011;4394;51.208;8.904;2023-08-01T03:08:35;0.20;;;0.20;;
8714;SDS011;4394;51.208;8.904;2023-08-01T03:11:23;1.40;;;0.30;;
8714;SDS011;4394;51.208;8.904;2023-08-01T03:14:11;0.27;;;0.20;;
8714;SDS011;4394;51.208;8.904;2023-08-01T03:16:59;0.30;;;0.20;;
8714;SDS011;4394;51.208;8.904;2023-08-01T03:19:49;0.70;;;0.30;;
8714;SDS011;4394;51.208;8.904;2023-08-01T03:22:37;1.13;;;0.30;;
8714;SDS011;4394;51.208;8.904;2023-08-01T03:25:26;1.20;;;0.50;;
8714;SDS011;4394;51.208;8.904;2023-08-01T03:28:14;0.50;;;0.20;;
8714;SDS011;4394;51.208;8.904;2023-08-01T03:31:02;0.60;;;0.20;;
8714;SDS011;4394;51.208;8.904;2023-08-01T03:33:50;0.30;;;0.30;;
8714;SDS011;4394;51.208;8.904;2023-08-01T03:36:39;1.10;;;0.23;;
8714;SDS011;4394;51.208;8.904;2023-08-01T03:39:28;0.37;;;0.27;;
8714;SDS011;4394;51.208;8.904;2023-08-01T03:42:16;0.20;;;0.20;;
8714;SDS011;4394;51.208;8.904;2023-08-01T03:45:05;0.40;;;0.20;;
8714;SDS011;4394;51.208;8.904;2023-08-01T03:47:53;0.10;;;0.10;;
8714;SDS011;4394;51.208;8.904;2023-08-01T03:50:41;1.60;;;0.20;;
8714;SDS011;4394;51.208;8.904;2023-08-01T03:53:31;0.63;;;0.50;;
8714;SDS011;4394;51.208;8.904;2023-08-01T03:56:19;0.23;;;0.20;;
8714;SDS011;4394;51.208;8.904;2023-08-01T03:59:07;0.30;;;0.23;;
8714;SDS011;4394;51.208;8.904;2023-08-01T04:01:55;0.53;;;0.10;;
8714;SDS011;4394;51.208;8.904;2023-08-01T04:04:43;0.10;;;0.10;;
8714;SDS011;4394;51.208;8.904;2023-08-01T04:07:31;1.53;;;0.40;;
8714;SDS011;4394;51.208;8.904;2023-08-01T04:10:21;0.90;;;0.30;;
8714;SDS011;4394;51.208;8.904;2023-08-01T04:13:09;0.13;;;0.10;;
8714;SDS011;4394;51.208;8.904;2023-08-01T04:15:57;0.20;;;0.10;;
8714;SDS011;4394;51.208;8.904;2023-08-01T04:18:47;0.57;;;0.10;;
8714;SDS011;4394;51.208;8.904;2023-08-01T04:21:35;0.77;;;0.20;;
8714;SDS011;4394;51.208;8.904;2023-08-01T04:24:23;0.10;;;0.00;;
8714;SDS011;4394;51.208;8.904;2023-08-01T04:27:13;0.30;;;0.10;;
8714;SDS011;4394;51.208;8.904;2023-08-01T04:30:01;0.10;;;0.03;;
8714;SDS011;4394;51.208;8.904;2023-08-01T04:32:49;0.97;;;0.20;;
8714;SDS011;4394;51.208;8.904;2023-08-01T04:35:38;0.10;;;0.10;;
8714;SDS011;4394;51.208;8.904;2023-08-01T04:38:26;0.10;;;0.07;;
8714;SDS011;4394;51.208;8.904;2023-08-01T04:41:14;0.00;;;0.00;;
8714;SDS011;4394;51.208;8.904;2023-08-01T04:44:04;1.03;;;0.00;;
8714;SDS011;4394;51.208;8.904;2023-08-01T04:46:52;0.00;;;0.00;;
8714;SDS011;4394;51.208;8.904;2023-08-01T04:49:40;0.60;;;0.10;;
8714;SDS011;4394;51.208;8.904;2023-08-01T04:52:29;0.20;;;0.00;;
8714;SDS011;4394;51.208;8.904;2023-08-01T04:55:17;0.00;;;0.00;;
8714;SDS011;4394;51.208;8.904;2023-08-01T04:58:05;0.50;;;0.07;;
8714;SDS011;4394;51.208;8.904;2023-08-01T05:00:58;2.13;;;0.00;;
8714;SDS011;4394;51.208;8.904;2023-08-01T05:03:46;1.17;;;0.20;;
8714;SDS011;4394;51.208;8.904;2023-08-01T05:06:34;0.00;;;0.00;;
8714;SDS011;4394;51.208;8.904;2023-08-01T05:09:22;1.30;;;0.20;;
8714;SDS011;4394;51.208;8.904;2023-08-01T05:12:10;0.20;;;0.10;;
8714;SDS011;4394;51.208;8.904;2023-08-01T05:14:58;0.10;;;0.10;;
8714;SDS011;4394;51.208;8.904;2023-08-01T05:17:48;0.10;;;0.10;;
8714;SDS011;4394;51.208;8.904;2023-08-01T05:20:36;0.00;;;0.00;;
8714;SDS011;4394;51.208;8.904;2023-08-01T05:23:24;0.00;;;0.00;;
8714;SDS011;4394;51.208;8.904;2023-08-01T05:26:12;0.77;;;0.20;;
8714;SDS011;4394;51.208;8.904;2023-08-01T05:29:00;0.10;;;0.10;;
8714;SDS011;4394;51.208;8.904;2023-08-01T05:31:48;0.13;;;0.10;;
8714;SDS011;4394;51.208;8.904;2023-08-01T05:34:38;0.10;;;0.10;;
8714;SDS011;4394;51.208;8.904;2023-08-01T05:37:26;0.77;;;0.10;;
8714;SDS011;4394;51.208;8.904;2023-08-01T05:40:14;0.17;;;0.17;;
8714;SDS011;4394;51.208;8.904;2023-08-01T05:43:02;0.63;;;0.10;;
8714;SDS011;4394;51.208;8.904;2023-08-01T05:45:51;1.63;;;0.23;;
8714;SDS011;4394;51.208;8.904;2023-08-01T05:48:39;1.07;;;0.20;;
8714;SDS011;4394;51.208;8.904;2023-08-01T05:51:29;0.40;;;0.10;;
8714;SDS011;4394;51.208;8.904;2023-08-01T05:54:17;0.10;;;0.10;;
8714;SDS011;4394;51.208;8.904;2023-08-01T05:57:05;0.17;;;0.10;;
8714;SDS011;4394;51.208;8.904;2023-08-01T05:59:55;0.30;;;0.20;;
8714;SDS011;4394;51.208;8.904;2023-08-01T06:02:43;0.30;;;0.13;;
8714;SDS011;4394;51.208;8.904;2023-08-01T06:05:32;0.20;;;0.10;;
8714;SDS011;4394;51.208;8.904;2023-08-01T06:08:21;0.10;;;0.10;;
8714;SDS011;4394;51.208;8.904;2023-08-01T06:11:10;0.47;;;0.17;;
8714;SDS011;4394;51.208;8.904;2023-08-01T06:13:58;0.37;;;0.20;;
8714;SDS011;4394;51.208;8.904;2023-08-01T06:16:46;1.30;;;0.20;;
8714;SDS011;4394;51.208;8.904;2023-08-01T06:19:34;0.20;;;0.20;;
8714;SDS011;4394;51.208;8.904;2023-08-01T06:22:22;0.10;;;0.10;;
8714;SDS011;4394;51.208;8.904;2023-08-01T06:25:12;0.30;;;0.30;;
8714;SDS011;4394;51.208;8.904;2023-08-01T06:28:00;0.30;;;0.30;;
8714;SDS011;4394;51.208;8.904;2023-08-01T06:30:48;1.63;;;0.40;;
8714;SDS011;4394;51.208;8.904;2023-08-01T06:33:36;0.80;;;0.70;;
8714;SDS011;4394;51.208;8.904;2023-08-01T06:36:24;0.97;;;0.53;;
8714;SDS011;4394;51.208;8.904;2023-08-01T06:39:12;1.07;;;0.97;;
8714;SDS011;4394;51.208;8.904;2023-08-01T06:42:02;2.10;;;1.13;;
8714;SDS011;4394;51.208;8.904;2023-08-01T06:44:50;1.40;;;1.30;;
8714;SDS011;4394;51.208;8.904;2023-08-01T06:47:38;1.17;;;1.10;;
8714;SDS011;4394;51.208;8.904;2023-08-01T06:50:26;1.70;;;1.20;;
8714;SDS011;4394;51.208;8.904;2023-08-01T06:53:15;3.30;;;2.10;;
8714;SDS011;4394;51.208;8.904;2023-08-01T06:56:03;2.43;;;1.90;;
8714;SDS011;4394;51.208;8.904;2023-08-01T06:58:53;1.97;;;1.80;;
8714;SDS011;4394;51.208;8.904;2023-08-01T07:01:41;3.00;;;2.30;;
8714;SDS011;4394;51.208;8.904;2023-08-01T07:04:30;3.20;;;2.70;;
8714;SDS011;4394;51.208;8.904;2023-08-01T07:07:18;3.20;;;2.90;;
8714;SDS011;4394;51.208;8.904;2023-08-01T07:10:07;3.43;;;2.87;;
8714;SDS011;4394;51.208;8.904;2023-08-01T07:12:55;5.30;;;2.90;;
8714;SDS011;4394;51.208;8.904;2023-08-01T07:15:45;3.40;;;2.80;;
8714;SDS011;4394;51.208;8.904;2023-08-01T07:18:33;4.43;;;2.97;;
8714;SDS011;4394;51.208;8.904;2023-08-01T07:21:21;3.93;;;2.80;;
8714;SDS011;4394;51.208;8.904;2023-08-01T07:24:09;4.37;;;3.17;;
8714;SDS011;4394;51.208;8.904;2023-08-01T07:26:57;3.77;;;2.93;;
8714;SDS011;4394;51.208;8.904;2023-08-01T07:29:45;3.77;;;3.00;;
8714;SDS011;4394;51.208;8.904;2023-08-01T07:32:35;5.00;;;3.67;;
8714;SDS011;4394;51.208;8.904;2023-08-01T07:35:23;4.80;;;2.87;;
8714;SDS011;4394;51.208;8.904;2023-08-01T07:38:12;4.97;;;3.07;;
8714;SDS011;4394;51.208;8.904;2023-08-01T07:41:01;3.83;;;3.00;;
8714;SDS011;4394;51.208;8.904;2023-08-01T07:43:50;6.80;;;3.40;;
8714;SDS011;4394;51.208;8.904;2023-08-01T07:46:38;5.33;;;3.20;;
8714;SDS011;4394;51.208;8.904;2023-08-01T07:49:28;5.40;;;3.63;;
8714;SDS011;4394;51.208;8.904;2023-08-01T07:52:16;4.43;;;3.60;;
8714;SDS011;4394;51.208;8.904;2023-08-01T07:55:05;4.10;;;2.97;;
8714;SDS011;4394;51.208;8.904;2023-08-01T07:57:54;4.73;;;3.33;;
8714;SDS011;4394;51.208;8.904;2023-08-01T08:00:42;4.90;;;3.17;;
8714;SDS011;4394;51.208;8.904;2023-08-01T08:03:30;4.43;;;3.20;;
8714;SDS011;4394;51.208;8.904;2023-08-01T08:06:19;4.87;;;3.10;;
8714;SDS011;4394;51.208;8.904;2023-08-01T08:09:08;6.03;;;3.60;;
8714;SDS011;4394;51.208;8.904;2023-08-01T08:11:56;5.40;;;3.90;;
8714;SDS011;4394;51.208;8.904;2023-08-01T08:14:44;4.20;;;3.03;;
8714;SDS011;4394;51.208;8.904;2023-08-01T08:17:32;5.87;;;3.40;;
8714;SDS011;4394;51.208;8.904;2023-08-01T08:20:21;4.93;;;3.90;;
8714;SDS011;4394;51.208;8.904;2023-08-01T08:23:10;4.27;;;3.10;;
8714;SDS011;4394;51.208;8.904;2023-08-01T08:26:00;5.63;;;3.30;;
8714;SDS011;4394;51.208;8.904;2023-08-01T08:28:48;4.57;;;3.50;;
8714;SDS011;4394;51.208;8.904;2023-08-01T08:31:36;5.53;;;2.93;;
8714;SDS011;4394;51.208;8.904;2023-08-01T08:34:24;3.93;;;2.60;;
8714;SDS011;4394;51.208;8.904;2023-08-01T08:37:12;2.63;;;2.43;;
8714;SDS011;4394;51.208;8.904;2023-08-01T08:40:02;4.53;;;2.90;;
8714;SDS011;4394;51.208;8.904;2023-08-01T08:42:52;4.03;;;2.80;;
8714;SDS011;4394;51.208;8.904;2023-08-01T08:45:40;4.63;;;2.80;;
8714;SDS011;4394;51.208;8.904;2023-08-01T08:48:30;4.03;;;3.27;;
8714;SDS011;4394;51.208;8.904;2023-08-01T08:51:19;4.07;;;3.27;;
8714;SDS011;4394;51.208;8.904;2023-08-01T08:54:08;3.30;;;3.00;;
8714;SDS011;4394;51.208;8.904;2023-08-01T08:56:59;5.83;;;3.90;;
8714;SDS011;4394;51.208;8.904;2023-08-01T08:59:48;4.90;;;3.30;;
8714;SDS011;4394;51.208;8.904;2023-08-01T09:02:37;5.73;;;3.77;;
8714;SDS011;4394;51.208;8.904;2023-08-01T09:05:26;6.10;;;3.90;;
8714;SDS011;4394;51.208;8.904;2023-08-01T09:08:17;5.47;;;3.70;;
8714;SDS011;4394;51.208;8.904;2023-08-01T09:11:07;3.37;;;3.07;;
8714;SDS011;4394;51.208;8.904;2023-08-01T09:13:56;4.57;;;3.10;;
8714;SDS011;4394;51.208;8.904;2023-08-01T09:16:45;3.40;;;2.70;;
8714;SDS011;4394;51.208;8.904;2023-08-01T09:19:34;4.63;;;3.80;;
8714;SDS011;4394;51.208;8.904;2023-08-01T09:22:22;5.80;;;3.73;;
8714;SDS011;4394;51.208;8.904;2023-08-01T09:25:10;5.70;;;3.50;;
8714;SDS011;4394;51.208;8.904;2023-08-01T09:27:59;5.40;;;3.10;;
8714;SDS011;4394;51.208;8.904;2023-08-01T09:30:49;3.37;;;2.87;;
8714;SDS011;4394;51.208;8.904;2023-08-01T09:33:39;3.13;;;2.83;;
8714;SDS011;4394;51.208;8.904;2023-08-01T09:36:27;3.93;;;2.60;;
8714;SDS011;4394;51.208;8.904;2023-08-01T09:39:16;2.80;;;2.50;;
8714;SDS011;4394;51.208;8.904;2023-08-01T09:42:05;2.50;;;2.30;;
8714;SDS011;4394;51.208;8.904;2023-08-01T09:44:54;4.50;;;2.70;;
8714;SDS011;4394;51.208;8.904;2023-08-01T09:47:44;2.87;;;2.40;;
8714;SDS011;4394;51.208;8.904;2023-08-01T09:50:35;3.43;;;2.50;;
8714;SDS011;4394;51.208;8.904;2023-08-01T09:53:23;3.03;;;2.70;;
8714;SDS011;4394;51.208;8.904;2023-08-01T09:56:11;6.33;;;3.27;;
8714;SDS011;4394;51.208;8.904;2023-08-01T09:59:02;3.40;;;2.90;;
8714;SDS011;4394;51.208;8.904;2023-08-01T10:01:51;5.00;;;3.20;;
8714;SDS011;4394;51.208;8.904;2023-08-01T10:04:42;3.70;;;2.60;;
8714;SDS011;4394;51.208;8.904;2023-08-01T10:07:30;5.30;;;2.80;;
8714;SDS011;4394;51.208;8.904;2023-08-01T10:10:20;3.10;;;2.80;;
8714;SDS011;4394;51.208;8.904;2023-08-01T10:13:09;4.67;;;3.00;;
8714;SDS011;4394;51.208;8.904;2023-08-01T10:16:00;5.10;;;3.20;;
8714;SDS011;4394;51.208;8.904;2023-08-01T10:18:48;3.63;;;2.77;;
8714;SDS011;4394;51.208;8.904;2023-08-01T10:21:39;4.47;;;2.73;;
8714;SDS011;4394;51.208;8.904;2023-08-01T10:24:29;3.60;;;2.43;;
8714;SDS011;4394;51.208;8.904;2023-08-01T10:27:19;3.20;;;2.60;;
8714;SDS011;4394;51.208;8.904;2023-08-01T10:30:10;2.83;;;2.53;;
8714;SDS011;4394;51.208;8.904;2023-08-01T10:32:59;4.20;;;2.90;;
8714;SDS011;4394;51.208;8.904;2023-08-01T10:35:47;3.80;;;2.93;;
8714;SDS011;4394;51.208;8.904;2023-08-01T10:38:45;4.60;;;3.10;;
8714;SDS011;4394;51.208;8.904;2023-08-01T10:41:35;4.43;;;2.70;;
8714;SDS011;4394;51.208;8.904;2023-08-01T10:44:25;3.60;;;2.97;;
8714;SDS011;4394;51.208;8.904;2023-08-01T10:47:13;3.50;;;2.87;;
8714;SDS011;4394;51.208;8.904;2023-08-01T10:50:01;4.10;;;2.90;;
8714;SDS011;4394;51.208;8.904;2023-08-01T10:53:04;4.27;;;3.40;;
8714;SDS011;4394;51.208;8.904;2023-08-01T10:55:55;4.57;;;2.83;;
8714;SDS011;4394;51.208;8.904;2023-08-01T10:58:44;5.00;;;3.37;;
8714;SDS011;4394;51.208;8.904;2023-08-01T11:01:42;3.47;;;2.70;;
8714;SDS011;4394;51.208;8.904;2023-08-01T11:04:31;4.90;;;3.00;;
8714;SDS011;4394;51.208;8.904;2023-08-01T11:07:19;4.20;;;2.67;;
8714;SDS011;4394;51.208;8.904;2023-08-01T11:10:08;4.37;;;3.07;;
8714;SDS011;4394;51.208;8.904;2023-08-01T11:12:59;4.50;;;2.73;;
8714;SDS011;4394;51.208;8.904;2023-08-01T11:15:47;3.47;;;2.40;;
8714;SDS011;4394;51.208;8.904;2023-08-01T11:18:40;2.77;;;2.30;;
8714;SDS011;4394;51.208;8.904;2023-08-01T11:21:29;3.03;;;2.40;;
8714;SDS011;4394;51.208;8.904;2023-08-01T11:24:18;2.83;;;2.45;;
8714;SDS011;4394;51.208;8.904;2023-08-01T11:27:06;2.57;;;2.37;;
8714;SDS011;4394;51.208;8.904;2023-08-01T11:29:59;4.77;;;2.83;;
8714;SDS011;4394;51.208;8.904;2023-08-01T11:32:47;2.77;;;2.50;;
8714;SDS011;4394;51.208;8.904;2023-08-01T11:35:35;3.00;;;2.60;;
8714;SDS011;4394;51.208;8.904;2023-08-01T11:38:23;3.57;;;2.70;;
8714;SDS011;4394;51.208;8.904;2023-08-01T11:41:15;3.10;;;2.57;;
8714;SDS011;4394;51.208;8.904;2023-08-01T11:44:04;6.10;;;2.80;;
8714;SDS011;4394;51.208;8.904;2023-08-01T11:46:54;3.10;;;2.80;;
8714;SDS011;4394;51.208;8.904;2023-08-01T11:49:45;4.30;;;3.00;;
8714;SDS011;4394;51.208;8.904;2023-08-01T11:52:33;3.30;;;2.73;;
8714;SDS011;4394;51.208;8.904;2023-08-01T11:55:22;2.80;;;2.60;;
8714;SDS011;4394;51.208;8.904;2023-08-01T11:58:12;2.60;;;2.40;;
8714;SDS011;4394;51.208;8.904;2023-08-01T12:01:01;3.07;;;2.40;;
8714;SDS011;4394;51.208;8.904;2023-08-01T12:03:53;2.57;;;2.37;;
8714;SDS011;4394;51.208;8.904;2023-08-01T12:06:42;3.80;;;2.43;;
8714;SDS011;4394;51.208;8.904;2023-08-01T12:09:31;5.23;;;2.77;;
8714;SDS011;4394;51.208;8.904;2023-08-01T12:12:19;5.53;;;2.70;;
8714;SDS011;4394;51.208;8.904;2023-08-01T12:15:07;3.13;;;2.60;;
8714;SDS011;4394;51.208;8.904;2023-08-01T12:17:56;2.60;;;2.20;;
8714;SDS011;4394;51.208;8.904;2023-08-01T12:20:46;4.47;;;2.50;;
8714;SDS011;4394;51.208;8.904;2023-08-01T12:23:35;3.03;;;2.53;;
8714;SDS011;4394;51.208;8.904;2023-08-01T12:26:23;2.97;;;2.47;;
8714;SDS011;4394;51.208;8.904;2023-08-01T12:29:12;2.87;;;2.50;;
8714;SDS011;4394;51.208;8.904;2023-08-01T12:32:00;3.27;;;2.30;;
8714;SDS011;4394;51.208;8.904;2023-08-01T12:34:48;3.00;;;2.10;;
8714;SDS011;4394;51.208;8.904;2023-08-01T12:37:38;2.30;;;2.10;;
8714;SDS011;4394;51.208;8.904;2023-08-01T12:40:26;4.13;;;2.50;;
8714;SDS011;4394;51.208;8.904;2023-08-01T12:43:14;3.73;;;2.00;;
8714;SDS011;4394;51.208;8.904;2023-08-01T12:46:03;3.70;;;2.20;;
8714;SDS011;4394;51.208;8.904;2023-08-01T12:48:51;2.70;;;2.23;;
8714;SDS011;4394;51.208;8.904;2023-08-01T12:51:39;2.77;;;2.40;;
8714;SDS011;4394;51.208;8.904;2023-08-01T12:54:29;3.23;;;2.10;;
8714;SDS011;4394;51.208;8.904;2023-08-01T12:57:17;2.53;;;1.97;;
8714;SDS011;4394;51.208;8.904;2023-08-01T13:00:06;2.80;;;2.00;;
8714;SDS011;4394;51.208;8.904;2023-08-01T13:02:56;3.73;;;2.50;;
8714;SDS011;4394;51.208;8.904;2023-08-01T13:05:44;3.97;;;2.43;;
8714;SDS011;4394;51.208;8.904;2023-08-01T13:08:32;3.87;;;2.63;;
8714;SDS011;4394;51.208;8.904;2023-08-01T13:11:22;4.87;;;2.27;;
8714;SDS011;4394;51.208;8.904;2023-08-01T13:14:10;2.70;;;2.20;;
8714;SDS011;4394;51.208;8.904;2023-08-01T13:16:58;4.73;;;2.40;;
8714;SDS011;4394;51.208;8.904;2023-08-01T13:19:46;3.63;;;2.20;;
8714;SDS011;4394;51.208;8.904;2023-08-01T13:22:34;3.33;;;2.33;;
8714;SDS011;4394;51.208;8.904;2023-08-01T13:25:23;3.23;;;2.37;;
8714;SDS011;4394;51.208;8.904;2023-08-01T13:28:13;2.33;;;2.03;;
8714;SDS011;4394;51.208;8.904;2023-08-01T13:31:01;2.97;;;2.20;;
8714;SDS011;4394;51.208;8.904;2023-08-01T13:33:49;4.65;;;2.40;;
8714;SDS011;4394;51.208;8.904;2023-08-01T13:36:37;3.00;;;2.47;;
8714;SDS011;4394;51.208;8.904;2023-08-01T13:39:26;5.57;;;2.77;;
8714;SDS011;4394;51.208;8.904;2023-08-01T13:42:14;3.43;;;2.40;;
8714;SDS011;4394;51.208;8.904;2023-08-01T13:45:04;4.47;;;2.40;;
8714;SDS011;4394;51.208;8.904;2023-08-01T13:47:53;3.43;;;2.30;;
8714;SDS011;4394;51.208;8.904;2023-08-01T13:50:41;3.20;;;2.33;;
8714;SDS011;4394;51.208;8.904;2023-08-01T13:53:29;4.33;;;2.20;;
8714;SDS011;4394;51.208;8.904;2023-08-01T13:56:18;2.60;;;2.10;;
8714;SDS011;4394;51.208;8.904;2023-08-01T13:59:08;2.80;;;2.23;;
8714;SDS011;4394;51.208;8.904;2023-08-01T14:01:57;3.83;;;2.70;;
8714;SDS011;4394;51.208;8.904;2023-08-01T14:04:45;3.60;;;2.23;;
8714;SDS011;4394;51.208;8.904;2023-08-01T14:07:34;3.47;;;2.50;;
8714;SDS011;4394;51.208;8.904;2023-08-01T14:10:26;4.47;;;2.67;;
8714;SDS011;4394;51.208;8.904;2023-08-01T14:13:14;2.83;;;2.47;;
8714;SDS011;4394;51.208;8.904;2023-08-01T14:16:02;3.37;;;2.00;;
8714;SDS011;4394;51.208;8.904;2023-08-01T14:18:52;3.00;;;2.13;;
8714;SDS011;4394;51.208;8.904;2023-08-01T14:21:40;3.63;;;2.50;;
8714;SDS011;4394;51.208;8.904;2023-08-01T14:24:28;3.13;;;2.00;;
8714;SDS011;4394;51.208;8.904;2023-08-01T14:27:16;3.70;;;1.70;;
8714;SDS011;4394;51.208;8.904;2023-08-01T14:30:05;2.87;;;1.70;;
8714;SDS011;4394;51.208;8.904;2023-08-01T14:32:58;2.30;;;1.80;;
8714;SDS011;4394;51.208;8.904;2023-08-01T14:35:49;2.13;;;1.53;;
8714;SDS011;4394;51.208;8.904;2023-08-01T14:38:37;2.20;;;1.60;;
8714;SDS011;4394;51.208;8.904;2023-08-01T14:41:25;2.07;;;1.30;;
8714;SDS011;4394;51.208;8.904;2023-08-01T14:44:33;2.60;;;1.40;;
8714;SDS011;4394;51.208;8.904;2023-08-01T14:47:21;2.33;;;1.50;;
8714;SDS011;4394;51.208;8.904;2023-08-01T14:50:09;1.93;;;1.20;;
8714;SDS011;4394;51.208;8.904;2023-08-01T14:52:59;1.40;;;1.30;;
8714;SDS011;4394;51.208;8.904;2023-08-01T14:55:55;2.60;;;1.43;;
8714;SDS011;4394;51.208;8.904;2023-08-01T14:58:44;1.80;;;1.60;;
8714;SDS011;4394;51.208;8.904;2023-08-01T15:01:32;3.50;;;1.63;;
8714;SDS011;4394;51.208;8.904;2023-08-01T15:04:20;2.40;;;1.60;;
8714;SDS011;4394;51.208;8.904;2023-08-01T15:07:08;1.97;;;1.40;;
8714;SDS011;4394;51.208;8.904;2023-08-01T15:09:58;2.17;;;1.60;;
8714;SDS011;4394;51.208;8.904;2023-08-01T15:12:46;2.63;;;1.60;;
8714;SDS011;4394;51.208;8.904;2023-08-01T15:15:35;4.30;;;2.00;;
8714;SDS011;4394;51.208;8.904;2023-08-01T15:18:23;2.73;;;1.53;;
8714;SDS011;4394;51.208;8.904;2023-08-01T15:21:11;2.07;;;1.87;;
8714;SDS011;4394;51.208;8.904;2023-08-01T15:24:00;4.27;;;2.03;;
8714;SDS011;4394;51.208;8.904;2023-08-01T15:26:49;3.30;;;2.00;;
8714;SDS011;4394;51.208;8.904;2023-08-01T15:29:38;2.63;;;2.13;;
8714;SDS011;4394;51.208;8.904;2023-08-01T15:32:26;3.77;;;1.80;;
8714;SDS011;4394;51.208;8.904;2023-08-01T15:35:14;2.77;;;1.30;;
8714;SDS011;4394;51.208;8.904;2023-08-01T15:38:02;2.67;;;1.80;;
8714;SDS011;4394;51.208;8.904;2023-08-01T15:40:52;2.57;;;1.70;;
8714;SDS011;4394;51.208;8.904;2023-08-01T15:43:41;4.07;;;2.20;;
8714;SDS011;4394;51.208;8.904;2023-08-01T15:46:30;3.13;;;2.53;;
8714;SDS011;4394;51.208;8.904;2023-08-01T15:49:18;4.20;;;1.97;;
8714;SDS011;4394;51.208;8.904;2023-08-01T15:52:06;3.00;;;2.10;;
8714;SDS011;4394;51.208;8.904;2023-08-01T15:54:54;2.40;;;1.90;;
8714;SDS011;4394;51.208;8.904;2023-08-01T15:57:42;3.60;;;2.23;;
8714;SDS011;4394;51.208;8.904;2023-08-01T16:00:32;2.77;;;2.10;;
8714;SDS011;4394;51.208;8.904;2023-08-01T16:03:20;2.90;;;2.30;;
8714;SDS011;4394;51.208;8.904;2023-08-01T16:06:09;3.23;;;2.20;;
8714;SDS011;4394;51.208;8.904;2023-08-01T16:09:00;4.73;;;2.10;;
8714;SDS011;4394;51.208;8.904;2023-08-01T16:11:48;3.23;;;2.47;;
8714;SDS011;4394;51.208;8.904;2023-08-01T16:14:36;2.60;;;2.10;;
8714;SDS011;4394;51.208;8.904;2023-08-01T16:17:28;3.03;;;2.40;;
8714;SDS011;4394;51.208;8.904;2023-08-01T16:20:16;2.73;;;2.20;;
8714;SDS011;4394;51.208;8.904;2023-08-01T16:23:06;4.67;;;2.20;;
8714;SDS011;4394;51.208;8.904;2023-08-01T16:25:54;4.03;;;2.63;;
8714;SDS011;4394;51.208;8.904;2023-08-01T16:28:44;2.93;;;2.40;;
8714;SDS011;4394;51.208;8.904;2023-08-01T16:31:32;3.70;;;2.60;;
8714;SDS011;4394;51.208;8.904;2023-08-01T16:34:21;3.27;;;2.40;;
8714;SDS011;4394;51.208;8.904;2023-08-01T16:37:09;5.13;;;2.80;;
8714;SDS011;4394;51.208;8.904;2023-08-01T16:39:58;3.47;;;2.37;;
8714;SDS011;4394;51.208;8.904;2023-08-01T16:42:46;2.83;;;2.23;;
8714;SDS011;4394;51.208;8.904;2023-08-01T16:45:34;2.80;;;2.30;;
8714;SDS011;4394;51.208;8.904;2023-08-01T16:48:22;4.13;;;2.37;;
8714;SDS011;4394;51.208;8.904;2023-08-01T16:51:11;4.63;;;2.47;;
8714;SDS011;4394;51.208;8.904;2023-08-01T16:53:59;3.90;;;2.37;;
8714;SDS011;4394;51.208;8.904;2023-08-01T16:56:48;3.00;;;2.47;;
8714;SDS011;4394;51.208;8.904;2023-08-01T16:59:37;3.73;;;2.37;;
8714;SDS011;4394;51.208;8.904;2023-08-01T17:02:26;4.90;;;2.80;;
8714;SDS011;4394;51.208;8.904;2023-08-01T17:05:14;3.67;;;2.63;;
8714;SDS011;4394;51.208;8.904;2023-08-01T17:08:04;4.10;;;2.47;;
8714;SDS011;4394;51.208;8.904;2023-08-01T17:10:52;4.87;;;2.60;;
8714;SDS011;4394;51.208;8.904;2023-08-01T17:13:40;6.20;;;2.70;;
8714;SDS011;4394;51.208;8.904;2023-08-01T17:16:28;3.77;;;2.63;;
8714;SDS011;4394;51.208;8.904;2023-08-01T17:19:16;3.83;;;2.47;;
8714;SDS011;4394;51.208;8.904;2023-08-01T17:22:05;3.13;;;2.40;;
8714;SDS011;4394;51.208;8.904;2023-08-01T17:24:54;3.93;;;2.60;;
8714;SDS011;4394;51.208;8.904;2023-08-01T17:27:42;3.33;;;2.60;;